sensor_id;sensor_type;location;lat;lon;timestamp;pressure;altitude;pressure_sealevel;temperature;humidity
43683;BME280;29285;52.128;21.060;2023-03-14T00:04:54;98769.77;;;9.14;100.00
43683;BME280;29285;52.128;21.060;2023-03-14T00:09:56;98771.31;;;9.04;100.00
43683;BME280;29285;52.128;21.060;2023-03-14T00:14:57;98767.12;;;8.95;100.00
43683;BME280;29285;52.128;21.060;2023-03-14T00:19:57;98756.73;;;8.86;100.00
43683;BME280;29285;52.128;21.060;2023-03-14T00:25:05;98745.45;;;8.76;100.00
43683;BME280;29285;52.128;21.060;2023-03-14T00:30:07;98733.01;;;8.71;100.00
43683;BME280;29285;52.128;21.060;2023-03-14T00:35:08;98735.02;;;8.68;100.00
43683;BME280;29285;52.128;21.060;2023-03-14T00:40:09;98727.02;;;8.65;100.00
43683;BME280;29285;52.128;21.060;2023-03-14T00:45:10;98721.44;;;8.60;100.00
43683;BME280;29285;52.128;21.060;2023-03-14T00:50:11;98713.30;;;8.55;100.00
43683;BME280;29285;52.128;21.060;2023-03-14T00:55:12;98690.41;;;8.53;100.00
43683;BME280;29285;52.128;21.060;2023-03-14T01:00:13;98678.17;;;8.50;100.00
43683;BME280;29285;52.128;21.060;2023-03-14T01:05:14;98677.26;;;8.47;100.00
43683;BME280;29285;52.128;21.060;2023-03-14T01:10:15;98670.36;;;8.46;100.00
43683;BME280;29285;52.128;21.060;2023-03-14T01:15:16;98658.12;;;8.45;100.00
43683;BME280;29285;52.128;21.060;2023-03-14T01:20:17;98652.91;;;8.46;100.00
43683;BME280;29285;52.128;21.060;2023-03-14T01:25:18;98648.24;;;8.46;100.00
43683;BME280;29285;52.128;21.060;2023-03-14T01:30:19;98652.85;;;8.48;100.00
43683;BME280;29285;52.128;21.060;2023-03-14T01:35:20;98652.16;;;8.48;100.00
43683;BME280;29285;52.128;21.060;2023-03-14T01:40:21;98645.31;;;8.46;100.00
43683;BME280;29285;52.128;21.060;2023-03-14T01:50:41;98658.63;;;8.41;100.00
43683;BME280;29285;52.128;21.060;2023-03-14T01:55:42;98656.54;;;8.36;100.00
43683;BME280;29285;52.128;21.060;2023-03-14T02:00:43;98650.88;;;8.34;100.00
43683;BME280;29285;52.128;21.060;2023-03-14T02:05:44;98640.11;;;8.31;100.00
43683;BME280;29285;52.128;21.060;2023-03-14T02:10:48;98640.14;;;8.25;100.00
43683;BME280;29285;52.128;21.060;2023-03-14T02:15:49;98632.70;;;8.20;100.00
43683;BME280;29285;52.128;21.060;2023-03-14T02:26:15;98627.09;;;8.17;100.00
43683;BME280;29285;52.128;21.060;2023-03-14T02:31:18;98612.20;;;8.14;100.00
43683;BME280;29285;52.128;21.060;2023-03-14T02:36:21;98595.79;;;8.13;100.00
43683;BME280;29285;52.128;21.060;2023-03-14T02:41:24;98586.21;;;8.10;100.00
43683;BME280;29285;52.128;21.060;2023-03-14T02:46:25;98568.34;;;8.07;100.00
43683;BME280;29285;52.128;21.060;2023-03-14T02:51:26;98564.98;;;8.05;100.00
43683;BME280;29285;52.128;21.060;2023-03-14T02:56:28;98569.60;;;8.06;100.00
43683;BME280;29285;52.128;21.060;2023-03-14T03:01:29;98569.80;;;8.05;100.00
43683;BME280;29285;52.128;21.060;2023-03-14T03:06:30;98568.73;;;8.06;100.00
43683;BME280;29285;52.128;21.060;2023-03-14T03:11:30;98565.34;;;8.04;100.00
43683;BME280;29285;52.128;21.060;2023-03-14T03:16:32;98572.58;;;8.04;100.00
43683;BME280;29285;52.128;21.060;2023-03-14T03:21:33;98572.55;;;8.06;100.00
43683;BME280;29285;52.128;21.060;2023-03-14T03:26:35;98569.72;;;8.03;100.00
43683;BME280;29285;52.128;21.060;2023-03-14T03:31:37;98563.88;;;7.97;100.00
43683;BME280;29285;52.128;21.060;2023-03-14T03:36:38;98552.48;;;7.97;100.00
43683;BME280;29285;52.128;21.060;2023-03-14T03:41:39;98560.28;;;7.90;100.00
43683;BME280;29285;52.128;21.060;2023-03-14T03:46:40;98559.38;;;7.81;100.00
43683;BME280;29285;52.128;21.060;2023-03-14T03:51:41;98548.73;;;7.74;100.00
43683;BME280;29285;52.128;21.060;2023-03-14T03:56:42;98539.66;;;7.72;100.00
43683;BME280;29285;52.128;21.060;2023-03-14T04:01:43;98535.91;;;7.70;100.00
43683;BME280;29285;52.128;21.060;2023-03-14T04:06:44;98533.90;;;7.68;100.00
43683;BME280;29285;52.128;21.060;2023-03-14T04:11:45;98530.73;;;7.65;100.00
43683;BME280;29285;52.128;21.060;2023-03-14T04:16:46;98538.02;;;7.69;100.00
43683;BME280;29285;52.128;21.060;2023-03-14T04:21:47;98555.26;;;7.70;100.00
43683;BME280;29285;52.128;21.060;2023-03-14T04:26:48;98549.90;;;7.65;100.00
43683;BME280;29285;52.128;21.060;2023-03-14T04:31:49;98541.96;;;7.64;100.00
43683;BME280;29285;52.128;21.060;2023-03-14T04:36:49;98556.27;;;7.66;100.00
43683;BME280;29285;52.128;21.060;2023-03-14T04:41:50;98555.20;;;7.61;100.00
43683;BME280;29285;52.128;21.060;2023-03-14T04:46:51;98548.83;;;7.55;100.00
43683;BME280;29285;52.128;21.060;2023-03-14T04:51:52;98537.39;;;7.56;100.00
43683;BME280;29285;52.128;21.060;2023-03-14T04:56:53;98523.60;;;7.66;100.00
43683;BME280;29285;52.128;21.060;2023-03-14T05:01:54;98512.08;;;7.76;100.00
43683;BME280;29285;52.128;21.060;2023-03-14T05:06:55;98508.88;;;7.78;100.00
43683;BME280;29285;52.128;21.060;2023-03-14T05:11:56;98501.29;;;7.78;100.00
43683;BME280;29285;52.128;21.060;2023-03-14T05:16:57;98486.39;;;7.85;100.00
43683;BME280;29285;52.128;21.060;2023-03-14T05:21:57;98466.55;;;7.94;100.00
43683;BME280;29285;52.128;21.060;2023-03-14T05:26:58;98470.47;;;8.06;100.00
43683;BME280;29285;52.128;21.060;2023-03-14T05:31:59;98483.87;;;8.08;100.00
43683;BME280;29285;52.128;21.060;2023-03-14T05:37:00;98483.26;;;8.01;100.00
43683;BME280;29285;52.128;21.060;2023-03-14T05:42:01;98477.51;;;8.02;100.00
43683;BME280;29285;52.128;21.060;2023-03-14T05:47:02;98465.90;;;8.03;100.00
43683;BME280;29285;52.128;21.060;2023-03-14T05:52:03;98449.44;;;8.10;100.00
43683;BME280;29285;52.128;21.060;2023-03-14T05:57:04;98444.65;;;8.18;100.00
43683;BME280;29285;52.128;21.060;2023-03-14T06:02:05;98439.66;;;8.27;100.00
43683;BME280;29285;52.128;21.060;2023-03-14T06:07:06;98423.14;;;8.44;100.00
43683;BME280;29285;52.128;21.060;2023-03-14T06:12:07;98417.74;;;8.60;100.00
43683;BME280;29285;52.128;21.060;2023-03-14T06:17:07;98408.37;;;8.79;100.00
43683;BME280;29285;52.128;21.060;2023-03-14T06:22:08;98398.63;;;9.10;100.00
43683;BME280;29285;52.128;21.060;2023-03-14T06:27:09;98395.35;;;9.31;100.00
43683;BME280;29285;52.128;21.060;2023-03-14T06:32:10;98397.20;;;9.37;100.00
43683;BME280;29285;52.128;21.060;2023-03-14T06:48:12;98396.09;;;9.35;100.00
43683;BME280;29285;52.128;21.060;2023-03-14T06:53:13;98393.20;;;9.29;100.00
43683;BME280;29285;52.128;21.060;2023-03-14T06:58:14;98386.75;;;9.39;100.00
43683;BME280;29285;52.128;21.060;2023-03-14T07:03:15;98383.67;;;9.46;100.00
43683;BME280;29285;52.128;21.060;2023-03-14T07:08:16;98382.48;;;9.58;100.00
43683;BME280;29285;52.128;21.060;2023-03-14T07:13:17;98387.27;;;9.76;100.00
43683;BME280;29285;52.128;21.060;2023-03-14T07:18:18;98382.58;;;9.91;100.00
43683;BME280;29285;52.128;21.060;2023-03-14T07:23:19;98376.11;;;10.08;100.00
43683;BME280;29285;52.128;21.060;2023-03-14T07:28:20;98392.53;;;10.21;100.00
43683;BME280;29285;52.128;21.060;2023-03-14T07:33:21;98392.39;;;10.24;100.00
43683;BME280;29285;52.128;21.060;2023-03-14T07:38:21;98402.75;;;10.32;100.00
43683;BME280;29285;52.128;21.060;2023-03-14T07:43:22;98411.81;;;10.47;100.00
43683;BME280;29285;52.128;21.060;2023-03-14T07:48:24;98401.36;;;10.71;100.00
43683;BME280;29285;52.128;21.060;2023-03-14T07:53:25;98401.88;;;10.97;100.00
43683;BME280;29285;52.128;21.060;2023-03-14T07:58:26;98399.36;;;11.17;100.00
43683;BME280;29285;52.128;21.060;2023-03-14T08:03:27;98401.05;;;11.35;100.00
43683;BME280;29285;52.128;21.060;2023-03-14T08:08:28;98394.74;;;11.61;100.00
43683;BME280;29285;52.128;21.060;2023-03-14T08:13:29;98395.77;;;11.81;100.00
43683;BME280;29285;52.128;21.060;2023-03-14T08:18:30;98401.24;;;12.00;100.00
43683;BME280;29285;52.128;21.060;2023-03-14T08:23:31;98403.59;;;12.02;100.00
43683;BME280;29285;52.128;21.060;2023-03-14T08:28:32;98391.10;;;12.02;99.49
43683;BME280;29285;52.128;21.060;2023-03-14T08:33:33;98397.44;;;12.27;99.37
43683;BME280;29285;52.128;21.060;2023-03-14T08:38:34;98405.20;;;12.18;98.15
43683;BME280;29285;52.128;21.060;2023-03-14T08:43:35;98401.73;;;12.25;96.86
43683;BME280;29285;52.128;21.060;2023-03-14T08:48:36;98407.87;;;12.46;97.18
43683;BME280;29285;52.128;21.060;2023-03-14T08:53:37;98403.95;;;12.64;97.32
43683;BME280;29285;52.128;21.060;2023-03-14T08:58:37;98400.49;;;12.67;96.21
43683;BME280;29285;52.128;21.060;2023-03-14T09:03:38;98390.00;;;12.65;94.63
43683;BME280;29285;52.128;21.060;2023-03-14T09:08:39;98390.91;;;12.73;93.41
43683;BME280;29285;52.128;21.060;2023-03-14T09:13:40;98385.51;;;12.86;93.45
43683;BME280;29285;52.128;21.060;2023-03-14T09:18:41;98384.01;;;12.88;91.95
43683;BME280;29285;52.128;21.060;2023-03-14T09:23:42;98369.95;;;12.93;90.50
43683;BME280;29285;52.128;21.060;2023-03-14T09:28:46;98362.88;;;13.05;89.83
43683;BME280;29285;52.128;21.060;2023-03-14T09:33:46;98359.38;;;13.17;88.79
43683;BME280;29285;52.128;21.060;2023-03-14T09:38:47;98345.88;;;13.37;88.13
43683;BME280;29285;52.128;21.060;2023-03-14T09:43:49;98343.19;;;13.50;86.97
43683;BME280;29285;52.128;21.060;2023-03-14T09:48:51;98330.53;;;13.61;86.25
43683;BME280;29285;52.128;21.060;2023-03-14T09:53:52;98320.62;;;13.81;85.70
43683;BME280;29285;52.128;21.060;2023-03-14T09:58:57;98307.95;;;14.03;86.04
43683;BME280;29285;52.128;21.060;2023-03-14T10:04:10;98307.60;;;14.17;84.45
43683;BME280;29285;52.128;21.060;2023-03-14T10:09:19;98297.58;;;14.24;80.97
43683;BME280;29285;52.128;21.060;2023-03-14T10:14:29;98308.20;;;14.35;79.97
43683;BME280;29285;52.128;21.060;2023-03-14T10:19:30;98307.55;;;14.35;78.77
43683;BME280;29285;52.128;21.060;2023-03-14T10:24:34;98315.92;;;14.32;77.94
43683;BME280;29285;52.128;21.060;2023-03-14T10:29:51;98307.36;;;14.29;76.10
43683;BME280;29285;52.128;21.060;2023-03-14T10:35:04;98294.80;;;14.29;74.95
43683;BME280;29285;52.128;21.060;2023-03-14T10:40:05;98295.96;;;14.33;74.39
43683;BME280;29285;52.128;21.060;2023-03-14T10:50:29;98291.23;;;14.39;74.31
43683;BME280;29285;52.128;21.060;2023-03-14T10:55:39;98287.93;;;14.36;74.49
43683;BME280;29285;52.128;21.060;2023-03-14T11:00:40;98284.54;;;14.26;74.19
43683;BME280;29285;52.128;21.060;2023-03-14T11:05:56;98282.20;;;14.22;74.47
43683;BME280;29285;52.128;21.060;2023-03-14T11:11:02;98292.16;;;14.22;74.70
43683;BME280;29285;52.128;21.060;2023-03-14T11:26:15;98295.98;;;14.44;74.19
43683;BME280;29285;52.128;21.060;2023-03-14T11:31:29;98300.88;;;14.46;74.36
43683;BME280;29285;52.128;21.060;2023-03-14T11:36:33;98297.79;;;14.40;74.48
43683;BME280;29285;52.128;21.060;2023-03-14T11:41:39;98286.74;;;14.33;74.41
43683;BME280;29285;52.128;21.060;2023-03-14T11:46:42;98286.85;;;14.36;75.08
43683;BME280;29285;52.128;21.060;2023-03-14T11:51:46;98291.92;;;14.25;75.17
43683;BME280;29285;52.128;21.060;2023-03-14T11:56:51;98301.30;;;14.06;74.81
43683;BME280;29285;52.128;21.060;2023-03-14T12:06:54;98297.92;;;13.76;74.23
43683;BME280;29285;52.128;21.060;2023-03-14T12:12:02;98297.32;;;13.92;74.89
43683;BME280;29285;52.128;21.060;2023-03-14T12:22:18;98295.23;;;14.17;74.97
43683;BME280;29285;52.128;21.060;2023-03-14T12:27:42;98303.29;;;14.02;74.23
43683;BME280;29285;52.128;21.060;2023-03-14T12:32:55;98294.55;;;13.97;74.24
43683;BME280;29285;52.128;21.060;2023-03-14T12:38:06;98306.15;;;14.32;75.86
43683;BME280;29285;52.128;21.060;2023-03-14T12:43:24;98307.38;;;14.54;77.26
43683;BME280;29285;52.128;21.060;2023-03-14T12:48:25;98299.92;;;14.59;77.53
43683;BME280;29285;52.128;21.060;2023-03-14T13:03:47;98312.00;;;14.58;78.11
43683;BME280;29285;52.128;21.060;2023-03-14T13:08:50;98318.17;;;14.65;78.70
43683;BME280;29285;52.128;21.060;2023-03-14T13:13:57;98325.38;;;14.59;78.86
43683;BME280;29285;52.128;21.060;2023-03-14T13:19:11;98329.14;;;14.49;79.11
43683;BME280;29285;52.128;21.060;2023-03-14T13:24:23;98335.38;;;14.27;79.26
43683;BME280;29285;52.128;21.060;2023-03-14T13:29:25;98350.38;;;13.76;79.24
43683;BME280;29285;52.128;21.060;2023-03-14T13:34:30;98339.45;;;13.19;79.49
43683;BME280;29285;52.128;21.060;2023-03-14T13:39:31;98337.32;;;12.92;80.35
43683;BME280;29285;52.128;21.060;2023-03-14T13:44:34;98338.80;;;12.75;81.08
43683;BME280;29285;52.128;21.060;2023-03-14T13:49:35;98349.77;;;12.59;82.05
43683;BME280;29285;52.128;21.060;2023-03-14T13:54:38;98344.51;;;12.41;83.07
43683;BME280;29285;52.128;21.060;2023-03-14T13:59:39;98350.25;;;12.25;84.01
43683;BME280;29285;52.128;21.060;2023-03-14T14:04:40;98353.26;;;12.00;84.94
43683;BME280;29285;52.128;21.060;2023-03-14T14:09:42;98350.37;;;11.83;86.12
43683;BME280;29285;52.128;21.060;2023-03-14T14:14:46;98346.58;;;11.65;87.51
43683;BME280;29285;52.128;21.060;2023-03-14T14:19:47;98336.59;;;11.53;88.74
43683;BME280;29285;52.128;21.060;2023-03-14T14:24:49;98337.13;;;11.40;89.86
43683;BME280;29285;52.128;21.060;2023-03-14T14:29:59;98326.90;;;11.29;91.17
43683;BME280;29285;52.128;21.060;2023-03-14T14:35:01;98327.70;;;11.16;92.06
43683;BME280;29285;52.128;21.060;2023-03-14T14:40:07;98329.71;;;11.07;93.13
43683;BME280;29285;52.128;21.060;2023-03-14T14:45:27;98319.96;;;10.97;93.98
43683;BME280;29285;52.128;21.060;2023-03-14T14:50:29;98317.91;;;10.90;95.22
43683;BME280;29285;52.128;21.060;2023-03-14T14:55:33;98305.32;;;10.88;96.12
43683;BME280;29285;52.128;21.060;2023-03-14T15:00:34;98299.15;;;10.90;97.26
43683;BME280;29285;52.128;21.060;2023-03-14T15:05:35;98308.34;;;10.87;97.99
43683;BME280;29285;52.128;21.060;2023-03-14T15:10:39;98319.63;;;10.83;98.67
43683;BME280;29285;52.128;21.060;2023-03-14T15:15:40;98338.65;;;10.70;99.70
43683;BME280;29285;52.128;21.060;2023-03-14T15:20:42;98365.73;;;10.58;100.00
43683;BME280;29285;52.128;21.060;2023-03-14T15:25:43;98367.73;;;10.49;100.00
43683;BME280;29285;52.128;21.060;2023-03-14T15:30:47;98364.62;;;10.44;100.00
43683;BME280;29285;52.128;21.060;2023-03-14T15:35:48;98352.04;;;10.42;100.00
43683;BME280;29285;52.128;21.060;2023-03-14T15:40:50;98355.48;;;10.43;100.00
43683;BME280;29285;52.128;21.060;2023-03-14T15:45:51;98344.98;;;10.46;100.00
43683;BME280;29285;52.128;21.060;2023-03-14T15:50:52;98348.77;;;10.46;100.00
43683;BME280;29285;52.128;21.060;2023-03-14T15:55:53;98348.30;;;10.45;100.00
43683;BME280;29285;52.128;21.060;2023-03-14T16:00:53;98355.85;;;10.51;100.00
43683;BME280;29285;52.128;21.060;2023-03-14T16:05:54;98370.12;;;10.53;100.00
43683;BME280;29285;52.128;21.060;2023-03-14T16:10:57;98382.02;;;10.58;100.00
43683;BME280;29285;52.128;21.060;2023-03-14T16:16:02;98380.91;;;10.64;100.00
43683;BME280;29285;52.128;21.060;2023-03-14T16:21:11;98377.80;;;10.67;100.00
43683;BME280;29285;52.128;21.060;2023-03-14T16:26:14;98369.43;;;10.75;100.00
43683;BME280;29285;52.128;21.060;2023-03-14T16:31:16;98377.13;;;10.78;100.00
43683;BME280;29285;52.128;21.060;2023-03-14T16:36:17;98381.63;;;10.74;100.00
43683;BME280;29285;52.128;21.060;2023-03-14T16:41:18;98375.88;;;10.75;100.00
43683;BME280;29285;52.128;21.060;2023-03-14T16:46:19;98378.99;;;10.75;100.00
43683;BME280;29285;52.128;21.060;2023-03-14T16:51:22;98397.33;;;10.72;100.00
43683;BME280;29285;52.128;21.060;2023-03-14T16:56:23;98389.81;;;10.66;100.00
43683;BME280;29285;52.128;21.060;2023-03-14T17:01:24;98383.73;;;10.70;100.00
43683;BME280;29285;52.128;21.060;2023-03-14T17:06:26;98373.35;;;10.70;100.00
43683;BME280;29285;52.128;21.060;2023-03-14T17:11:27;98383.09;;;10.69;100.00
43683;BME280;29285;52.128;21.060;2023-03-14T17:16:28;98380.96;;;10.62;100.00
43683;BME280;29285;52.128;21.060;2023-03-14T17:21:29;98382.58;;;10.61;100.00
43683;BME280;29285;52.128;21.060;2023-03-14T17:26:31;98387.39;;;10.58;100.00
43683;BME280;29285;52.128;21.060;2023-03-14T17:31:32;98386.51;;;10.59;100.00
43683;BME280;29285;52.128;21.060;2023-03-14T17:36:33;98388.17;;;10.57;100.00
43683;BME280;29285;52.128;21.060;2023-03-14T17:41:34;98395.42;;;10.57;100.00
43683;BME280;29285;52.128;21.060;2023-03-14T17:46:35;98386.67;;;10.59;100.00
43683;BME280;29285;52.128;21.060;2023-03-14T17:51:36;98396.88;;;10.56;100.00
43683;BME280;29285;52.128;21.060;2023-03-14T17:56:37;98394.34;;;10.54;100.00
43683;BME280;29285;52.128;21.060;2023-03-14T18:01:38;98399.08;;;10.53;100.00
43683;BME280;29285;52.128;21.060;2023-03-14T18:06:40;98406.70;;;10.53;100.00
43683;BME280;29285;52.128;21.060;2023-03-14T18:11:44;98417.20;;;10.51;100.00
43683;BME280;29285;52.128;21.060;2023-03-14T18:16:45;98421.01;;;10.51;100.00
43683;BME280;29285;52.128;21.060;2023-03-14T18:21:48;98422.20;;;10.49;100.00
43683;BME280;29285;52.128;21.060;2023-03-14T18:26:51;98415.86;;;10.50;100.00
43683;BME280;29285;52.128;21.060;2023-03-14T18:31:51;98418.62;;;10.51;100.00
43683;BME280;29285;52.128;21.060;2023-03-14T18:36:52;98424.61;;;10.49;100.00
43683;BME280;29285;52.128;21.060;2023-03-14T18:41:53;98427.92;;;10.48;100.00
43683;BME280;29285;52.128;21.060;2023-03-14T18:46:54;98425.05;;;10.46;100.00
43683;BME280;29285;52.128;21.060;2023-03-14T18:51:55;98424.44;;;10.44;100.00
43683;BME280;29285;52.128;21.060;2023-03-14T18:56:56;98425.02;;;10.43;100.00
43683;BME280;29285;52.128;21.060;2023-03-14T19:01:59;98428.20;;;10.41;100.00
43683;BME280;29285;52.128;21.060;2023-03-14T19:07:00;98439.48;;;10.41;100.00
43683;BME280;29285;52.128;21.060;2023-03-14T19:12:02;98446.23;;;10.37;100.00
43683;BME280;29285;52.128;21.060;2023-03-14T19:17:02;98450.35;;;10.34;100.00
43683;BME280;29285;52.128;21.060;2023-03-14T19:22:03;98441.20;;;10.33;100.00
43683;BME280;29285;52.128;21.060;2023-03-14T19:27:04;98443.95;;;10.30;100.00
43683;BME280;29285;52.128;21.060;2023-03-14T19:32:05;98441.73;;;10.26;100.00
43683;BME280;29285;52.128;21.060;2023-03-14T19:37:06;98437.72;;;10.18;100.00
43683;BME280;29285;52.128;21.060;2023-03-14T19:42:07;98436.72;;;10.13;100.00
43683;BME280;29285;52.128;21.060;2023-03-14T19:47:08;98438.41;;;10.10;100.00
43683;BME280;29285;52.128;21.060;2023-03-14T19:52:09;98441.64;;;10.04;100.00
43683;BME280;29285;52.128;21.060;2023-03-14T19:57:10;98441.53;;;9.98;100.00
43683;BME280;29285;52.128;21.060;2023-03-14T20:02:14;98439.42;;;9.95;100.00
43683;BME280;29285;52.128;21.060;2023-03-14T20:07:15;98443.72;;;9.88;100.00
43683;BME280;29285;52.128;21.060;2023-03-14T20:12:16;98448.73;;;9.84;100.00
43683;BME280;29285;52.128;21.060;2023-03-14T20:17:17;98447.13;;;9.81;100.00
43683;BME280;29285;52.128;21.060;2023-03-14T20:22:18;98451.34;;;9.76;100.00
43683;BME280;29285;52.128;21.060;2023-03-14T20:27:19;98451.73;;;9.70;100.00
43683;BME280;29285;52.128;21.060;2023-03-14T20:32:21;98450.89;;;9.65;100.00
43683;BME280;29285;52.128;21.060;2023-03-14T20:37:21;98454.89;;;9.61;100.00
43683;BME280;29285;52.128;21.060;2023-03-14T20:42:22;98448.72;;;9.55;100.00
43683;BME280;29285;52.128;21.060;2023-03-14T20:47:23;98449.20;;;9.52;100.00
43683;BME280;29285;52.128;21.060;2023-03-14T20:52:24;98452.64;;;9.48;100.00
43683;BME280;29285;52.128;21.060;2023-03-14T20:57:25;98454.38;;;9.44;100.00
43683;BME280;29285;52.128;21.060;2023-03-14T21:02:26;98461.30;;;9.39;100.00
43683;BME280;29285;52.128;21.060;2023-03-14T21:07:30;98464.65;;;9.38;100.00
43683;BME280;29285;52.128;21.060;2023-03-14T21:12:33;98466.58;;;9.33;100.00
43683;BME280;29285;52.128;21.060;2023-03-14T21:17:34;98467.42;;;9.30;100.00
43683;BME280;29285;52.128;21.060;2023-03-14T21:22:35;98465.28;;;9.31;100.00
43683;BME280;29285;52.128;21.060;2023-03-14T21:27:37;98467.08;;;9.38;100.00
43683;BME280;29285;52.128;21.060;2023-03-14T21:32:38;98469.63;;;9.44;100.00
43683;BME280;29285;52.128;21.060;2023-03-14T21:37:38;98465.45;;;9.45;100.00
43683;BME280;29285;52.128;21.060;2023-03-14T21:42:39;98464.62;;;9.43;100.00
43683;BME280;29285;52.128;21.060;2023-03-14T21:47:40;98468.59;;;9.26;100.00
43683;BME280;29285;52.128;21.060;2023-03-14T21:52:45;98471.91;;;9.12;100.00
43683;BME280;29285;52.128;21.060;2023-03-14T21:57:47;98475.85;;;9.00;100.00
43683;BME280;29285;52.128;21.060;2023-03-14T22:02:49;98475.08;;;8.93;100.00
43683;BME280;29285;52.128;21.060;2023-03-14T22:07:52;98480.57;;;8.90;100.00
43683;BME280;29285;52.128;21.060;2023-03-14T22:12:53;98485.79;;;8.89;100.00
43683;BME280;29285;52.128;21.060;2023-03-14T22:17:55;98481.23;;;8.91;100.00
43683;BME280;29285;52.128;21.060;2023-03-14T22:22:56;98480.95;;;8.94;100.00
43683;BME280;29285;52.128;21.060;2023-03-14T22:27:57;98487.33;;;8.94;100.00
43683;BME280;29285;52.128;21.060;2023-03-14T22:32:58;98487.16;;;8.94;100.00
43683;BME280;29285;52.128;21.060;2023-03-14T22:37:58;98489.33;;;8.96;100.00
43683;BME280;29285;52.128;21.060;2023-03-14T22:42:59;98487.17;;;8.98;100.00
43683;BME280;29285;52.128;21.060;2023-03-14T22:48:00;98493.80;;;9.01;100.00
43683;BME280;29285;52.128;21.060;2023-03-14T22:53:01;98489.77;;;9.03;100.00
43683;BME280;29285;52.128;21.060;2023-03-14T22:58:02;98497.98;;;9.05;100.00
43683;BME280;29285;52.128;21.060;2023-03-14T23:03:03;98504.85;;;9.06;100.00
43683;BME280;29285;52.128;21.060;2023-03-14T23:08:04;98504.98;;;9.07;100.00
43683;BME280;29285;52.128;21.060;2023-03-14T23:13:05;98506.48;;;9.08;100.00
43683;BME280;29285;52.128;21.060;2023-03-14T23:18:07;98507.92;;;9.11;100.00
43683;BME280;29285;52.128;21.060;2023-03-14T23:23:08;98518.02;;;9.15;100.00
43683;BME280;29285;52.128;21.060;2023-03-14T23:28:08;98528.33;;;9.17;100.00
43683;BME280;29285;52.128;21.060;2023-03-14T23:33:09;98539.21;;;9.17;100.00
43683;BME280;29285;52.128;21.060;2023-03-14T23:38:10;98548.25;;;9.16;100.00
43683;BME280;29285;52.128;21.060;2023-03-14T23:43:11;98550.72;;;9.14;100.00
43683;BME280;29285;52.128;21.060;2023-03-14T23:48:12;98561.27;;;9.06;100.00
43683;BME280;29285;52.128;21.060;2023-03-14T23:53:13;98559.56;;;9.00;100.00
43683;BME280;29285;52.128;21.060;2023-03-14T23:58:14;98559.19;;;8.96;100.00
